Time;durP1;ratioP1;P1;durP2;ratioP2;P2;SDS_P1;SDS_P2;PMS_P1;PMS_P2;Temp;Humidity;BMP_temperature;BMP_pressure;BME280_temperature;BME280_humidity;BME280_pressure;Samples;Min_cycle;Max_cycle;Signal;HPM_P1;HPM_P2
2021/12/24 00:00:10;;;;;;;25.67;22.90;;;9.40;99.90;;;;;;2082827;28;20084;-73
2021/12/24 00:01:22;;;;;;;29.45;23.20;;;9.40;99.90;;;;;;2080592;28;20087;-74
2021/12/24 00:02:23;;;;;;;29.30;23.73;;;9.40;99.90;;;;;;2081269;28;20021;-73
2021/12/24 00:03:23;;;;;;;31.85;23.85;;;9.40;99.90;;;;;;2089039;28;20052;-74
2021/12/24 00:04:24;;;;;;;28.42;25.33;;;9.40;99.90;;;;;;2088779;28;20072;-74
2021/12/24 00:05:25;;;;;;;28.63;25.17;;;9.40;99.90;;;;;;2085506;28;20025;-73
2021/12/24 00:06:26;;;;;;;32.60;25.98;;;9.40;99.90;;;;;;2078789;28;20025;-73
2021/12/24 00:07:27;;;;;;;35.38;27.50;;;9.50;99.90;;;;;;2088208;28;20583;-73
2021/12/24 00:08:27;;;;;;;33.78;28.45;;;9.50;99.90;;;;;;2088637;28;20106;-73
2021/12/24 00:09:32;;;;;;;32.42;28.08;;;9.50;99.90;;;;;;2085902;28;20025;-73
2021/12/24 00:10:35;;;;;;;33.92;27.58;;;9.50;99.90;;;;;;2080416;28;20474;-73
2021/12/24 00:11:36;;;;;;;41.47;29.52;;;9.50;99.90;;;;;;2080711;28;20965;-73
2021/12/24 00:12:42;;;;;;;36.70;30.30;;;9.50;99.90;;;;;;2072340;28;20037;-73
2021/12/24 00:13:46;;;;;;;35.45;29.27;;;9.50;99.90;;;;;;2073153;28;20017;-74
2021/12/24 00:14:51;;;;;;;39.08;31.20;;;9.50;99.90;;;;;;2077515;28;20377;-73
2021/12/24 00:16:04;;;;;;;35.00;29.80;;;9.50;99.90;;;;;;2077495;28;20037;-73
2021/12/24 00:17:05;;;;;;;41.28;31.25;;;9.50;99.90;;;;;;2081145;28;20040;-73
2021/12/24 00:18:28;;;;;;;39.53;30.88;;;9.50;99.90;;;;;;2087980;28;20028;-73
2021/12/24 00:19:46;;;;;;;36.00;29.27;;;9.50;99.90;;;;;;2088648;28;20029;-73
2021/12/24 00:21:53;;;;;;;39.03;29.17;;;9.50;99.90;;;;;;2082667;28;20052;-73
2021/12/24 00:22:20;;;;;;;34.42;28.83;;;9.50;99.90;;;;;;2080322;28;20116;-73
2021/12/24 00:35:05;;;;;;;38.30;29.15;;;9.50;99.90;;;;;;2079429;28;20022;-73
2021/12/24 00:35:21;;;;;;;31.77;24.55;;;9.50;99.90;;;;;;2079729;28;20128;-73
2021/12/24 00:36:22;;;;;;;33.75;26.23;;;9.50;99.90;;;;;;2080231;28;20030;-73
2021/12/24 00:37:23;;;;;;;28.77;24.70;;;9.50;99.90;;;;;;2080115;28;20049;-73
2021/12/24 00:38:24;;;;;;;28.50;24.38;;;9.50;99.90;;;;;;2084474;28;20017;-73
2021/12/24 00:39:24;;;;;;;29.33;24.35;;;9.50;99.90;;;;;;2096036;28;20021;-74
2021/12/24 00:40:25;;;;;;;28.80;22.98;;;9.60;99.90;;;;;;2094293;28;20103;-73
2021/12/24 00:41:26;;;;;;;27.05;24.00;;;9.60;99.90;;;;;;2079846;28;20046;-73
2021/12/24 00:42:26;;;;;;;26.23;23.42;;;9.60;99.90;;;;;;2080154;28;20672;-73
2021/12/24 00:43:27;;;;;;;27.95;23.75;;;9.60;99.90;;;;;;2080191;28;20020;-73
2021/12/24 00:44:27;;;;;;;26.02;23.13;;;9.60;99.90;;;;;;2079743;28;20029;-73
2021/12/24 00:45:31;;;;;;;26.95;22.55;;;9.60;99.90;;;;;;2079726;28;20022;-73
2021/12/24 00:46:34;;;;;;;26.02;23.13;;;9.60;99.90;;;;;;2079585;28;20026;-73
2021/12/24 00:47:34;;;;;;;26.20;23.30;;;9.60;99.90;;;;;;2080235;28;20025;-73
2021/12/24 00:48:35;;;;;;;26.00;23.00;;;9.60;99.90;;;;;;2087366;28;20037;-73
2021/12/24 00:49:35;;;;;;;27.48;23.80;;;9.60;99.90;;;;;;2088692;28;20032;-73
2021/12/24 00:52:07;;;;;;;26.83;23.02;;;9.70;99.90;;;;;;2071930;28;20032;-73
2021/12/24 00:55:02;;;;;;;27.35;23.45;;;9.70;99.90;;;;;;2076885;28;20013;-73
2021/12/24 00:55:47;;;;;;;27.67;22.00;;;9.60;99.90;;;;;;2078597;28;19912;-74
2021/12/24 00:56:47;;;;;;;28.50;24.33;;;9.50;99.90;;;;;;2088295;28;20100;-73
2021/12/24 00:57:53;;;;;;;27.80;22.77;;;9.60;99.90;;;;;;2086970;28;20032;-73
2021/12/24 00:58:54;;;;;;;27.88;23.60;;;9.60;99.90;;;;;;2079939;28;20033;-73
2021/12/24 00:59:55;;;;;;;28.58;24.58;;;9.60;99.90;;;;;;2087898;28;20029;-73
2021/12/24 01:00:56;;;;;;;30.23;24.67;;;9.70;99.90;;;;;;2095181;28;20025;-74
2021/12/24 01:02:03;;;;;;;26.77;24.00;;;9.70;99.90;;;;;;2096013;28;20516;-73
2021/12/24 01:03:06;;;;;;;26.25;23.48;;;9.70;99.90;;;;;;2087938;28;20112;-73
2021/12/24 01:04:07;;;;;;;27.48;23.48;;;9.70;99.90;;;;;;2088395;28;20105;-74
2021/12/24 01:05:08;;;;;;;28.55;24.15;;;9.70;99.90;;;;;;2087293;28;20024;-73
2021/12/24 01:06:09;;;;;;;25.38;22.10;;;9.70;99.90;;;;;;2087539;28;20032;-73
2021/12/24 01:07:10;;;;;;;27.02;23.75;;;9.70;99.90;;;;;;2088250;28;20040;-73
2021/12/24 01:08:12;;;;;;;25.00;21.38;;;9.70;99.90;;;;;;2087470;28;20063;-73
2021/12/24 01:09:13;;;;;;;26.58;22.13;;;9.70;99.90;;;;;;2079414;28;20544;-73
2021/12/24 01:10:18;;;;;;;25.27;22.10;;;9.70;99.90;;;;;;2082056;28;20409;-73
2021/12/24 01:11:20;;;;;;;23.50;21.00;;;9.70;99.90;;;;;;2084026;28;20588;-73
2021/12/24 01:12:20;;;;;;;26.88;22.75;;;9.70;99.90;;;;;;2077621;28;20033;-73
2021/12/24 01:13:21;;;;;;;25.83;22.92;;;9.70;99.90;;;;;;2079458;28;20044;-73
2021/12/24 01:14:23;;;;;;;25.67;21.67;;;9.70;99.90;;;;;;2079834;28;20053;-73
2021/12/24 01:15:24;;;;;;;24.63;21.27;;;9.70;99.90;;;;;;2074173;28;20421;-73
2021/12/24 01:16:32;;;;;;;23.90;20.70;;;9.80;99.90;;;;;;2078965;28;20025;-73
2021/12/24 01:17:43;;;;;;;23.42;20.13;;;9.80;99.90;;;;;;2079296;28;20104;-73
2021/12/24 01:19:52;;;;;;;22.38;19.95;;;9.70;99.90;;;;;;2073965;28;20021;-73
2021/12/24 01:21:06;;;;;;;22.70;18.35;;;9.70;99.90;;;;;;2076826;28;20026;-73
2021/12/24 01:25:05;;;;;;;20.92;18.77;;;9.70;99.90;;;;;;2080087;28;20144;-73
2021/12/24 01:26:10;;;;;;;22.20;19.00;;;9.70;99.90;;;;;;2080146;28;20024;-73
2021/12/24 01:27:51;;;;;;;19.83;17.70;;;9.70;99.90;;;;;;2084543;28;20033;-73
2021/12/24 01:29:06;;;;;;;20.85;17.83;;;9.70;99.90;;;;;;2075493;28;20029;-73
2021/12/24 01:39:42;;;;;;;17.50;15.70;;;9.70;99.90;;;;;;2062923;28;20035;-73
2021/12/24 01:43:11;;;;;;;17.73;15.93;;;9.70;99.90;;;;;;2080029;28;20042;-73
2021/12/24 01:44:12;;;;;;;17.52;15.73;;;9.70;99.90;;;;;;2078990;28;20143;-73
2021/12/24 01:45:19;;;;;;;18.08;16.15;;;9.70;99.90;;;;;;2079148;28;20030;-73
2021/12/24 01:46:20;;;;;;;17.42;15.63;;;9.70;99.90;;;;;;2079667;28;20064;-73
2021/12/24 01:47:21;;;;;;;17.45;15.65;;;9.70;99.90;;;;;;2079525;28;20036;-73
2021/12/24 01:48:22;;;;;;;21.60;17.85;;;9.80;99.90;;;;;;2085004;28;20416;-73
2021/12/24 01:49:23;;;;;;;17.30;15.40;;;9.80;99.90;;;;;;2078784;28;20537;-73
2021/12/24 01:50:26;;;;;;;20.58;17.00;;;9.80;99.90;;;;;;2078929;28;20033;-73
2021/12/24 01:51:26;;;;;;;17.98;16.08;;;9.80;99.90;;;;;;2083982;28;20078;-73
2021/12/24 01:52:27;;;;;;;18.05;16.25;;;9.80;99.90;;;;;;2079934;28;20039;-73
2021/12/24 01:53:29;;;;;;;18.33;16.38;;;9.80;99.90;;;;;;2087200;28;20032;-73
2021/12/24 01:54:30;;;;;;;17.58;15.75;;;9.90;99.90;;;;;;2087898;28;20021;-73
2021/12/24 01:55:31;;;;;;;18.23;16.33;;;9.80;99.90;;;;;;2082366;28;20115;-73
2021/12/24 01:56:31;;;;;;;17.20;15.55;;;9.80;99.90;;;;;;2079532;28;20022;-73
2021/12/24 01:57:32;;;;;;;17.38;15.57;;;9.90;99.90;;;;;;2080466;28;20029;-73
2021/12/24 01:58:33;;;;;;;17.05;15.32;;;9.90;99.90;;;;;;2087194;28;20025;-73
2021/12/24 01:59:33;;;;;;;16.05;14.48;;;9.90;99.90;;;;;;2084014;28;20428;-73
2021/12/24 02:00:43;;;;;;;17.35;15.50;;;9.90;99.90;;;;;;2087148;28;20021;-73
2021/12/24 02:01:44;;;;;;;17.10;15.38;;;9.90;99.90;;;;;;2071741;28;20018;-72
2021/12/24 02:02:45;;;;;;;17.60;15.80;;;9.90;99.90;;;;;;2075142;28;20049;-73
2021/12/24 02:03:45;;;;;;;18.30;16.40;;;9.90;99.90;;;;;;2079516;28;20079;-73
2021/12/24 02:04:46;;;;;;;17.80;16.08;;;9.90;99.90;;;;;;2079392;28;20469;-73
2021/12/24 02:05:48;;;;;;;18.10;16.30;;;9.90;99.90;;;;;;2078502;28;20061;-73
2021/12/24 02:06:50;;;;;;;18.75;16.85;;;9.90;99.90;;;;;;2079203;28;20033;-73
2021/12/24 02:07:51;;;;;;;18.67;16.77;;;9.90;99.90;;;;;;2079457;28;20034;-73
2021/12/24 02:08:52;;;;;;;17.55;15.80;;;9.90;99.90;;;;;;2079384;28;20032;-73
2021/12/24 02:09:55;;;;;;;20.23;17.20;;;9.90;99.90;;;;;;2079864;28;20036;-73
2021/12/24 02:10:56;;;;;;;19.25;16.83;;;10.00;99.90;;;;;;2083038;28;20033;-72
2021/12/24 02:11:57;;;;;;;18.55;16.55;;;10.00;99.90;;;;;;2081424;28;20144;-73
2021/12/24 02:12:58;;;;;;;18.80;16.92;;;9.90;99.90;;;;;;2080564;28;20021;-73
2021/12/24 02:14:02;;;;;;;19.27;17.17;;;9.90;99.90;;;;;;2076648;28;20036;-73
2021/12/24 02:15:06;;;;;;;17.52;15.73;;;9.90;99.90;;;;;;2079137;28;20512;-73
2021/12/24 02:29:09;;;;;;;19.38;17.38;;;9.90;99.90;;;;;;2078692;28;20456;-73
2021/12/24 02:30:10;;;;;;;20.27;18.05;;;9.90;99.90;;;;;;2079811;28;20025;-73
2021/12/24 02:31:13;;;;;;;20.23;17.40;;;9.90;99.90;;;;;;2078778;28;20492;-73
2021/12/24 02:32:14;;;;;;;20.88;18.10;;;9.90;99.90;;;;;;2086557;28;20087;-73
2021/12/24 02:33:15;;;;;;;21.38;19.20;;;9.90;99.90;;;;;;2087601;28;20021;-73
2021/12/24 02:34:16;;;;;;;21.17;18.73;;;10.00;99.90;;;;;;2080289;28;20044;-73
2021/12/24 02:35:19;;;;;;;22.48;19.40;;;10.00;99.90;;;;;;2082574;28;20059;-73
2021/12/24 02:36:21;;;;;;;22.00;19.73;;;10.00;99.90;;;;;;2079567;28;20030;-73
2021/12/24 02:37:21;;;;;;;23.98;21.52;;;10.00;99.90;;;;;;2079357;28;20104;-73
2021/12/24 02:38:22;;;;;;;22.25;19.90;;;10.00;99.90;;;;;;2082947;28;20029;-73
2021/12/24 02:39:23;;;;;;;22.55;20.25;;;10.00;99.90;;;;;;2087612;28;20029;-73
2021/12/24 02:40:24;;;;;;;23.73;21.17;;;10.00;99.90;;;;;;2086964;28;20053;-73
2021/12/24 02:41:24;;;;;;;24.05;21.50;;;10.00;99.90;;;;;;2092775;28;20028;-73
2021/12/24 02:42:25;;;;;;;24.75;22.15;;;10.00;99.90;;;;;;2086899;28;20017;-73
2021/12/24 02:43:26;;;;;;;23.92;21.27;;;10.00;99.90;;;;;;2078948;28;20021;-72
2021/12/24 02:44:27;;;;;;;23.92;21.48;;;10.00;99.90;;;;;;2078721;28;20033;-72
2021/12/24 02:45:31;;;;;;;25.65;21.50;;;10.00;99.90;;;;;;2079699;28;20105;-72
2021/12/24 02:46:40;;;;;;;24.70;22.13;;;10.10;99.90;;;;;;2078752;28;20473;-72
2021/12/24 02:48:13;;;;;;;25.42;22.80;;;10.10;99.90;;;;;;2079082;28;20428;-73
2021/12/24 02:54:28;;;;;;;25.33;22.55;;;10.00;99.90;;;;;;2074049;28;20037;-72
2021/12/24 02:55:29;;;;;;;26.92;23.58;;;10.00;99.90;;;;;;2079390;28;20100;-72
2021/12/24 02:56:36;;;;;;;26.50;23.33;;;10.00;99.90;;;;;;2083830;28;20033;-72
2021/12/24 02:57:38;;;;;;;26.67;23.88;;;10.00;99.90;;;;;;2079580;28;20021;-73
2021/12/24 02:58:41;;;;;;;29.98;23.23;;;10.00;99.90;;;;;;2079372;28;20078;-73
2021/12/24 02:59:57;;;;;;;30.05;25.00;;;10.10;99.90;;;;;;2079431;28;20026;-72
2021/12/24 03:00:58;;;;;;;26.95;24.00;;;10.10;99.90;;;;;;2078823;28;20032;-72
2021/12/24 03:01:58;;;;;;;28.73;25.60;;;10.10;99.90;;;;;;2080234;28;20112;-72
2021/12/24 03:02:59;;;;;;;30.63;25.25;;;10.10;99.90;;;;;;2080362;28;20080;-72
2021/12/24 03:04:00;;;;;;;29.33;24.42;;;10.10;99.90;;;;;;2080583;28;20026;-72
2021/12/24 03:05:01;;;;;;;28.30;24.75;;;10.10;99.90;;;;;;2080466;28;20025;-72
2021/12/24 03:06:02;;;;;;;29.92;25.23;;;10.10;99.90;;;;;;2080811;28;20033;-72
2021/12/24 03:07:03;;;;;;;34.47;26.70;;;10.10;99.90;;;;;;2080746;28;20052;-72
2021/12/24 03:08:04;;;;;;;27.95;24.27;;;10.20;99.90;;;;;;2080679;28;20030;-72
2021/12/24 03:09:07;;;;;;;27.58;24.63;;;10.20;99.90;;;;;;2080475;28;20041;-72
2021/12/24 03:10:15;;;;;;;27.80;24.83;;;10.20;99.90;;;;;;2080156;28;20026;-72
2021/12/24 03:11:16;;;;;;;26.48;23.65;;;10.20;99.90;;;;;;2078192;28;20021;-72
2021/12/24 03:12:16;;;;;;;27.00;24.05;;;10.20;99.90;;;;;;2075322;28;20053;-72
2021/12/24 03:13:17;;;;;;;28.25;23.80;;;10.20;99.90;;;;;;2073398;28;20390;-72
2021/12/24 03:14:19;;;;;;;26.67;23.83;;;10.20;99.90;;;;;;2083550;28;20053;-72
2021/12/24 03:15:23;;;;;;;26.30;23.48;;;10.20;99.90;;;;;;2073260;28;20083;-72
2021/12/24 03:16:23;;;;;;;27.83;23.80;;;10.20;99.90;;;;;;2079954;28;20028;-72
2021/12/24 03:17:26;;;;;;;27.00;23.48;;;10.20;99.90;;;;;;2086725;28;20032;-72
2021/12/24 03:18:30;;;;;;;27.42;23.88;;;10.20;99.90;;;;;;2090369;28;20017;-73
2021/12/24 03:19:32;;;;;;;25.00;22.38;;;10.20;99.90;;;;;;2081241;28;20056;-72
2021/12/24 03:20:34;;;;;;;24.50;21.85;;;10.20;99.90;;;;;;2085036;28;20017;-72
2021/12/24 03:21:46;;;;;;;23.52;21.13;;;10.20;99.90;;;;;;2082050;28;20489;-73
2021/12/24 03:25:04;;;;;;;22.92;20.60;;;10.20;99.90;;;;;;2081064;28;20022;-73
2021/12/24 03:26:07;;;;;;;25.98;21.80;;;10.20;99.90;;;;;;2082031;28;20033;-72
2021/12/24 03:27:09;;;;;;;23.98;21.38;;;10.20;99.90;;;;;;2086983;28;20091;-72
2021/12/24 03:28:09;;;;;;;23.58;20.65;;;10.20;99.90;;;;;;2082779;28;20030;-73
2021/12/24 03:29:11;;;;;;;24.25;21.23;;;10.20;99.90;;;;;;2090480;28;20029;-73
2021/12/24 03:30:13;;;;;;;21.83;19.55;;;10.20;99.90;;;;;;2085421;28;20025;-72
2021/12/24 03:31:13;;;;;;;22.25;20.05;;;10.20;99.90;;;;;;2089659;28;20090;-72
2021/12/24 03:32:14;;;;;;;23.23;19.80;;;10.20;99.90;;;;;;2088627;28;20078;-72
2021/12/24 03:33:15;;;;;;;22.75;20.42;;;10.20;99.90;;;;;;2090190;28;20025;-72
2021/12/24 03:34:18;;;;;;;24.48;19.33;;;10.20;99.90;;;;;;2089496;28;20120;-72
2021/12/24 03:35:19;;;;;;;22.35;19.58;;;10.30;99.90;;;;;;2089480;28;20053;-72
2021/12/24 03:36:23;;;;;;;22.30;19.90;;;10.20;99.90;;;;;;2081752;28;20485;-72
2021/12/24 03:37:24;;;;;;;22.33;19.92;;;10.20;99.90;;;;;;2081213;28;20026;-72
2021/12/24 03:38:24;;;;;;;24.42;19.95;;;10.20;99.90;;;;;;2081207;28;20017;-72
2021/12/24 03:39:25;;;;;;;21.60;19.40;;;10.20;99.90;;;;;;2081753;28;20477;-72
2021/12/24 03:40:26;;;;;;;22.80;20.50;;;10.20;99.90;;;;;;2081543;28;20048;-72
2021/12/24 03:41:27;;;;;;;21.50;19.13;;;10.20;99.90;;;;;;2081944;28;20132;-73
2021/12/24 03:42:27;;;;;;;22.33;19.02;;;10.20;99.90;;;;;;2081860;28;20378;-72
2021/12/24 03:43:28;;;;;;;23.05;20.15;;;10.20;99.90;;;;;;2081882;28;20029;-73
2021/12/24 03:44:36;;;;;;;21.23;18.95;;;10.20;99.90;;;;;;2082193;28;20076;-72
2021/12/24 03:46:02;;;;;;;23.73;20.17;;;10.20;99.90;;;;;;2084689;28;20021;-72
2021/12/24 03:47:06;;;;;;;22.30;20.00;;;10.20;99.90;;;;;;2088596;28;20025;-72
2021/12/24 03:48:16;;;;;;;26.92;19.40;;;10.20;99.90;;;;;;2085284;28;20025;-73
2021/12/24 03:49:37;;;;;;;22.00;19.70;;;10.20;99.90;;;;;;2076764;28;20036;-72
2021/12/24 03:50:47;;;;;;;23.85;21.35;;;10.20;99.90;;;;;;2076051;28;20034;-73
2021/12/24 03:52:01;;;;;;;23.15;20.85;;;10.20;99.90;;;;;;2075250;28;20023;-72
2021/12/24 03:53:06;;;;;;;24.63;21.83;;;10.20;99.90;;;;;;2077461;28;20022;-72
2021/12/24 03:55:25;;;;;;;24.73;21.80;;;10.20;99.90;;;;;;2077555;28;20374;-72
2021/12/24 03:56:27;;;;;;;27.63;23.08;;;10.20;99.90;;;;;;2094470;28;20117;-72
2021/12/24 03:57:32;;;;;;;26.48;23.77;;;10.20;99.90;;;;;;2097417;28;20465;-72
2021/12/24 03:58:33;;;;;;;27.45;24.55;;;10.20;99.90;;;;;;2074392;28;20053;-72
2021/12/24 03:59:33;;;;;;;26.35;23.52;;;10.30;99.90;;;;;;2077731;28;20021;-73
2021/12/24 04:00:34;;;;;;;26.45;23.67;;;10.30;99.90;;;;;;2081348;28;20036;-73
2021/12/24 04:01:35;;;;;;;26.95;24.05;;;10.30;99.90;;;;;;2081638;28;20029;-72
2021/12/24 04:02:36;;;;;;;27.38;24.63;;;10.30;99.90;;;;;;2080686;28;20053;-72
2021/12/24 04:03:38;;;;;;;27.98;24.92;;;10.30;99.90;;;;;;2080307;28;20021;-72
2021/12/24 04:04:39;;;;;;;30.00;26.05;;;10.30;99.90;;;;;;2086753;28;20028;-72
2021/12/24 04:05:39;;;;;;;27.77;24.90;;;10.30;99.90;;;;;;2083738;28;20039;-72
2021/12/24 04:06:40;;;;;;;28.17;24.73;;;10.30;99.90;;;;;;2080367;28;20501;-72
2021/12/24 04:07:41;;;;;;;29.05;25.95;;;10.30;99.90;;;;;;2077000;28;20588;-72
2021/12/24 04:08:41;;;;;;;30.13;26.65;;;10.30;99.90;;;;;;2080663;28;20037;-72
2021/12/24 04:09:49;;;;;;;31.50;27.05;;;10.30;99.90;;;;;;2086194;28;20029;-72
2021/12/24 04:10:50;;;;;;;29.02;25.98;;;10.40;99.90;;;;;;2082589;28;20410;-72
2021/12/24 04:11:51;;;;;;;31.25;27.17;;;10.30;99.90;;;;;;2075408;28;20049;-72
2021/12/24 04:12:51;;;;;;;29.95;26.20;;;10.30;99.90;;;;;;2070515;28;20026;-72
2021/12/24 04:13:52;;;;;;;31.55;26.58;;;10.30;99.90;;;;;;2079633;28;20473;-72
2021/12/24 04:14:53;;;;;;;31.50;26.35;;;10.30;99.90;;;;;;2074299;28;20105;-73
2021/12/24 04:15:54;;;;;;;32.80;27.33;;;10.30;99.90;;;;;;2079758;28;20034;-72
2021/12/24 04:16:54;;;;;;;29.25;26.00;;;10.30;99.90;;;;;;2079465;28;20494;-72
2021/12/24 04:17:55;;;;;;;31.83;26.15;;;10.40;99.90;;;;;;2080009;28;20118;-72
2021/12/24 04:25:31;;;;;;;28.70;25.63;;;10.30;99.90;;;;;;2079889;28;20100;-72
2021/12/24 04:26:33;;;;;;;30.95;26.75;;;10.30;99.90;;;;;;2077783;28;20022;-73
2021/12/24 04:27:34;;;;;;;29.13;25.98;;;10.30;99.90;;;;;;2080360;28;20033;-72
2021/12/24 04:28:34;;;;;;;34.10;27.17;;;10.30;99.90;;;;;;2080937;28;20056;-73
2021/12/24 04:29:35;;;;;;;33.72;28.10;;;10.30;99.90;;;;;;2080769;28;20449;-72
2021/12/24 04:30:42;;;;;;;31.75;25.40;;;10.30;99.90;;;;;;2080062;28;20023;-72
2021/12/24 04:31:54;;;;;;;30.40;26.42;;;10.30;99.90;;;;;;2081821;28;20018;-72
2021/12/24 04:33:01;;;;;;;31.90;26.25;;;10.30;99.90;;;;;;2088692;28;20024;-73
2021/12/24 04:34:03;;;;;;;29.88;26.60;;;10.30;99.90;;;;;;2088268;28;20532;-72
2021/12/24 04:35:17;;;;;;;33.13;27.58;;;10.30;99.90;;;;;;2087211;28;20432;-73
2021/12/24 04:36:54;;;;;;;33.03;27.98;;;10.30;99.90;;;;;;2076697;28;20040;-72
2021/12/24 04:51:58;;;;;;;36.97;28.08;;;10.20;99.90;;;;;;2088427;28;20025;-72
2021/12/24 05:02:01;;;;;;;33.20;29.25;;;10.20;99.90;;;;;;2072085;28;20029;-72
2021/12/24 05:03:06;;;;;;;35.50;30.30;;;10.30;99.90;;;;;;2078371;28;20087;-74
2021/12/24 05:04:09;;;;;;;36.20;30.30;;;10.30;99.90;;;;;;2079917;28;20028;-72
2021/12/24 05:08:50;;;;;;;37.90;30.10;;;10.30;99.90;;;;;;2080203;28;20497;-73
2021/12/24 05:09:51;;;;;;;38.22;30.92;;;10.30;99.90;;;;;;2079129;28;20029;-72
2021/12/24 05:10:52;;;;;;;35.22;28.88;;;10.30;99.90;;;;;;2076622;28;20028;-72
2021/12/24 05:11:53;;;;;;;37.70;30.60;;;10.40;99.90;;;;;;2073598;28;20034;-72
2021/12/24 05:12:53;;;;;;;35.47;30.42;;;10.30;99.90;;;;;;2080340;28;20021;-72
2021/12/24 05:13:55;;;;;;;36.25;30.40;;;10.30;99.90;;;;;;2082730;28;20029;-73
2021/12/24 05:14:57;;;;;;;35.88;29.65;;;10.40;99.90;;;;;;2080372;28;20048;-73
2021/12/24 05:16:13;;;;;;;33.53;29.90;;;10.40;99.90;;;;;;2079632;28;20061;-72
2021/12/24 05:17:31;;;;;;;41.22;29.17;;;10.40;99.90;;;;;;2075678;28;20028;-72
2021/12/24 05:18:58;;;;;;;36.17;28.92;;;10.40;99.90;;;;;;2079607;28;20025;-72
2021/12/24 05:22:33;;;;;;;32.03;27.58;;;10.30;99.90;;;;;;2079882;28;20033;-72
2021/12/24 05:23:33;;;;;;;36.30;30.40;;;10.30;99.90;;;;;;2079354;28;20049;-72
2021/12/24 05:24:34;;;;;;;32.22;28.50;;;10.30;99.90;;;;;;2088035;28;20047;-72
2021/12/24 05:25:43;;;;;;;35.38;29.48;;;10.40;99.90;;;;;;2083773;28;20044;-73
2021/12/24 05:26:47;;;;;;;33.65;27.95;;;10.40;99.90;;;;;;2081283;28;20036;-72
2021/12/24 05:27:51;;;;;;;33.35;28.88;;;10.40;99.90;;;;;;2080613;28;20029;-72
2021/12/24 05:28:52;;;;;;;32.95;29.27;;;10.30;99.90;;;;;;2078886;28;20025;-72
2021/12/24 05:29:54;;;;;;;34.47;29.48;;;10.40;99.90;;;;;;2079234;28;20033;-72
2021/12/24 05:30:55;;;;;;;32.58;29.10;;;10.40;99.90;;;;;;2078350;28;20022;-73
2021/12/24 05:31:55;;;;;;;44.58;31.05;;;10.40;99.90;;;;;;2079177;28;20104;-72
2021/12/24 05:32:56;;;;;;;35.05;29.65;;;10.40;99.90;;;;;;2079573;28;20029;-72
2021/12/24 05:33:57;;;;;;;35.25;30.80;;;10.40;99.90;;;;;;2079996;28;20350;-73
2021/12/24 05:34:58;;;;;;;35.08;30.67;;;10.40;99.90;;;;;;2079645;28;20053;-73
2021/12/24 05:35:58;;;;;;;33.90;30.15;;;10.40;99.90;;;;;;2080093;28;20033;-73
2021/12/24 05:36:59;;;;;;;37.03;29.73;;;10.40;99.90;;;;;;2079167;28;20028;-72
2021/12/24 05:37:59;;;;;;;33.25;29.80;;;10.40;99.90;;;;;;2079745;28;20465;-72
2021/12/24 05:39:00;;;;;;;37.58;30.13;;;10.50;99.90;;;;;;2079638;28;20021;-73
2021/12/24 05:40:01;;;;;;;36.97;31.83;;;10.40;99.90;;;;;;2079604;28;20021;-73
2021/12/24 05:41:02;;;;;;;34.80;29.65;;;10.40;99.90;;;;;;2079091;28;20077;-72
2021/12/24 05:42:04;;;;;;;36.78;31.33;;;10.40;99.90;;;;;;2079402;28;20021;-72
2021/12/24 05:43:05;;;;;;;36.00;31.45;;;10.50;99.90;;;;;;2082116;28;20033;-72
2021/12/24 05:44:09;;;;;;;34.75;29.45;;;10.40;99.90;;;;;;2087920;28;20041;-72
2021/12/24 05:45:10;;;;;;;35.63;29.60;;;10.50;99.90;;;;;;2085332;28;20974;-73
2021/12/24 05:46:11;;;;;;;39.53;30.75;;;10.50;99.90;;;;;;2081090;28;20057;-73
2021/12/24 05:47:11;;;;;;;36.55;30.23;;;10.40;99.90;;;;;;2078389;28;20036;-73
2021/12/24 05:48:12;;;;;;;39.20;29.70;;;10.50;99.90;;;;;;2078912;28;20520;-73
2021/12/24 05:49:14;;;;;;;35.75;30.10;;;10.50;99.90;;;;;;2079643;28;20042;-73
2021/12/24 05:50:14;;;;;;;33.45;29.85;;;10.50;99.90;;;;;;2078789;28;20119;-72
2021/12/24 05:51:15;;;;;;;34.70;28.85;;;10.50;99.90;;;;;;2081080;28;20029;-72
2021/12/24 05:52:15;;;;;;;37.65;30.48;;;10.50;99.90;;;;;;2087695;28;20525;-73
2021/12/24 05:53:16;;;;;;;34.95;29.92;;;10.50;99.90;;;;;;2079210;28;20044;-73
2021/12/24 05:54:17;;;;;;;35.47;29.05;;;10.50;99.90;;;;;;2080805;28;20576;-73
2021/12/24 05:55:17;;;;;;;33.20;29.10;;;10.50;99.90;;;;;;2085825;28;20061;-72
2021/12/24 05:56:18;;;;;;;38.80;30.50;;;10.50;99.90;;;;;;2079619;28;20029;-72
2021/12/24 05:57:18;;;;;;;37.17;30.23;;;10.50;99.90;;;;;;2079610;28;21019;-72
2021/12/24 05:58:20;;;;;;;36.88;30.27;;;10.50;99.90;;;;;;2079074;28;20026;-72
2021/12/24 05:59:20;;;;;;;34.58;30.88;;;10.50;99.90;;;;;;2079683;28;20045;-72
2021/12/24 06:00:21;;;;;;;35.30;30.65;;;10.50;99.90;;;;;;2079657;28;20053;-73
2021/12/24 06:01:23;;;;;;;37.55;30.38;;;10.50;99.90;;;;;;2084973;28;20709;-72
2021/12/24 06:02:24;;;;;;;34.38;30.48;;;10.50;99.90;;;;;;2084667;28;20492;-72
2021/12/24 06:03:24;;;;;;;36.10;30.38;;;10.50;99.90;;;;;;2077405;28;20402;-72
2021/12/24 06:04:25;;;;;;;38.40;30.13;;;10.50;99.90;;;;;;2077329;28;20025;-72
2021/12/24 06:05:26;;;;;;;35.90;31.15;;;10.40;99.90;;;;;;2078603;28;20025;-72
2021/12/24 06:06:26;;;;;;;35.40;30.02;;;10.50;99.90;;;;;;2083681;28;20496;-72
2021/12/24 06:07:27;;;;;;;35.75;29.45;;;10.50;99.90;;;;;;2082265;28;20020;-72
2021/12/24 06:08:27;;;;;;;37.97;30.70;;;10.50;99.90;;;;;;2079842;28;20033;-72
2021/12/24 06:09:28;;;;;;;37.50;31.45;;;10.50;99.90;;;;;;2082489;28;20029;-72
2021/12/24 06:10:28;;;;;;;39.20;31.80;;;10.50;99.90;;;;;;2079601;28;20033;-72
2021/12/24 06:11:29;;;;;;;36.47;30.80;;;10.50;99.90;;;;;;2079280;28;20499;-72
2021/12/24 06:12:30;;;;;;;37.53;30.65;;;10.50;99.90;;;;;;2076200;28;20024;-72
2021/12/24 06:13:30;;;;;;;38.17;31.05;;;10.50;99.90;;;;;;2070869;28;20404;-72
2021/12/24 06:14:31;;;;;;;44.75;31.60;;;10.50;99.90;;;;;;2078127;28;20021;-72
2021/12/24 06:15:41;;;;;;;40.33;31.65;;;10.50;99.90;;;;;;2079610;28;20492;-72
2021/12/24 06:16:49;;;;;;;39.78;31.92;;;10.50;99.90;;;;;;2078927;28;20026;-72
2021/12/24 06:17:52;;;;;;;38.60;32.20;;;10.50;99.90;;;;;;2077923;28;20029;-73
2021/12/24 06:18:54;;;;;;;41.53;32.60;;;10.50;99.90;;;;;;2080012;28;20104;-72
2021/12/24 06:19:55;;;;;;;38.88;31.20;;;10.50;99.90;;;;;;2080365;28;20018;-75
2021/12/24 06:20:58;;;;;;;38.00;31.67;;;10.50;99.90;;;;;;2080657;28;20049;-72
2021/12/24 06:21:58;;;;;;;38.70;32.10;;;10.50;99.90;;;;;;2082618;28;20462;-72
2021/12/24 06:23:00;;;;;;;40.40;32.92;;;10.50;99.90;;;;;;2080494;28;20389;-72
2021/12/24 06:24:00;;;;;;;36.72;32.15;;;10.50;99.90;;;;;;2083125;28;20036;-72
2021/12/24 06:25:02;;;;;;;37.88;32.50;;;10.50;99.90;;;;;;2081663;28;20072;-72
2021/12/24 06:26:04;;;;;;;41.60;31.88;;;10.50;99.90;;;;;;2080839;28;20041;-72
2021/12/24 06:27:04;;;;;;;39.08;31.55;;;10.50;99.90;;;;;;2079386;28;20107;-72
2021/12/24 06:28:05;;;;;;;41.00;32.10;;;10.50;99.90;;;;;;2079904;28;20045;-72
2021/12/24 06:29:06;;;;;;;39.92;31.63;;;10.50;99.90;;;;;;2079228;28;20033;-72
2021/12/24 06:30:07;;;;;;;37.33;31.92;;;10.50;99.90;;;;;;2079603;28;20039;-73
2021/12/24 06:31:08;;;;;;;42.10;32.13;;;10.50;99.90;;;;;;2078601;28;20029;-72
2021/12/24 06:32:09;;;;;;;37.13;31.00;;;10.50;99.90;;;;;;2079882;28;20052;-72
2021/12/24 06:33:10;;;;;;;42.00;31.67;;;10.60;99.90;;;;;;2079423;28;20053;-72
2021/12/24 06:34:11;;;;;;;41.60;32.08;;;10.50;99.90;;;;;;2079740;28;20083;-72
2021/12/24 06:35:11;;;;;;;41.63;33.00;;;10.50;99.90;;;;;;2081171;28;20036;-72
2021/12/24 06:36:12;;;;;;;42.88;32.40;;;10.50;99.90;;;;;;2079028;28;21029;-72
2021/12/24 06:37:12;;;;;;;41.28;32.97;;;10.50;99.90;;;;;;2078578;28;20141;-72
2021/12/24 06:38:13;;;;;;;45.42;33.38;;;10.50;99.90;;;;;;2074008;28;20029;-72
2021/12/24 06:39:15;;;;;;;38.35;31.92;;;10.60;99.90;;;;;;2079199;28;20029;-71
2021/12/24 06:40:16;;;;;;;38.35;32.30;;;10.60;99.90;;;;;;2077417;28;20026;-72
2021/12/24 06:41:17;;;;;;;40.55;31.67;;;10.50;99.90;;;;;;2079498;28;20473;-72
2021/12/24 06:42:18;;;;;;;40.45;31.92;;;10.60;99.90;;;;;;2087702;28;20139;-73
2021/12/24 06:43:18;;;;;;;36.83;31.67;;;10.60;99.90;;;;;;2087702;28;20477;-73
2021/12/24 06:44:20;;;;;;;40.05;31.83;;;10.60;99.90;;;;;;2087707;28;20025;-72
2021/12/24 06:45:24;;;;;;;40.40;32.10;;;10.60;99.90;;;;;;2087511;28;20128;-73
2021/12/24 06:46:24;;;;;;;38.33;32.45;;;10.60;99.90;;;;;;2087443;28;20025;-72
2021/12/24 06:47:25;;;;;;;39.80;31.92;;;10.60;99.90;;;;;;2079152;28;20125;-72
2021/12/24 06:48:26;;;;;;;39.13;31.33;;;10.60;99.90;;;;;;2078734;28;20410;-72